Time;durP1;ratioP1;P1;durP2;ratioP2;P2;SDS_P1;SDS_P2;PMS_P1;PMS_P2;Temp;Humidity;BMP_temperature;BMP_pressure;BME280_temperature;BME280_humidity;BME280_pressure;Samples;Min_cycle;Max_cycle;Signal;HPM_P1;HPM_P2
2023/12/26 00:02:02;;;;;;;;;;;;;;;13.90;47.61;100299.13;5037458;28;19931;-83
2023/12/26 00:04:27;;;;;;;;;;;;;;;13.91;47.86;100280.00;5036815;28;19925;-83
2023/12/26 00:06:52;;;;;;;;;;;;;;;13.94;47.88;100275.94;5037696;28;20565;-84
2023/12/26 00:09:18;;;;;;;;;;;;;;;13.93;47.95;100266.25;5038967;28;20376;-84
2023/12/26 00:11:44;;;;;;;;;;;;;;;13.96;48.08;100267.56;5037242;28;19925;-84
2023/12/26 00:14:10;;;;;;;;;;;;;;;13.97;48.16;100269.97;5038879;28;19924;-83
2023/12/26 00:16:35;;;;;;;;;;;;;;;13.92;48.18;100259.25;5038218;28;19925;-83
2023/12/26 00:19:00;;;;;;;;;;;;;;;13.90;48.35;100256.84;5036678;28;21305;-83
2023/12/26 00:21:26;;;;;;;;;;;;;;;13.90;48.49;100248.78;5037823;28;19978;-84
2023/12/26 00:23:51;;;;;;;;;;;;;;;13.91;48.57;100252.25;5037925;28;19956;-84
2023/12/26 00:26:16;;;;;;;;;;;;;;;13.90;48.47;100237.19;5037075;28;19925;-84
2023/12/26 00:28:41;;;;;;;;;;;;;;;13.86;48.54;100233.47;5038421;28;19935;-84
2023/12/26 00:31:07;;;;;;;;;;;;;;;13.84;49.13;100235.63;5038384;28;19947;-83
2023/12/26 00:33:32;;;;;;;;;;;;;;;13.86;49.04;100225.38;5037645;28;20015;-83
2023/12/26 00:35:59;;;;;;;;;;;;;;;13.89;49.08;100220.22;5037697;28;19925;-83
2023/12/26 00:38:24;;;;;;;;;;;;;;;13.92;49.14;100213.47;5036723;28;19921;-83
2023/12/26 00:40:50;;;;;;;;;;;;;;;13.93;49.58;100204.31;5037803;28;19931;-84
2023/12/26 00:43:15;;;;;;;;;;;;;;;13.94;49.61;100199.72;5039057;28;19932;-83
2023/12/26 00:45:40;;;;;;;;;;;;;;;13.92;49.57;100194.63;5036480;28;20446;-83
2023/12/26 00:48:06;;;;;;;;;;;;;;;13.92;50.23;100197.31;5036712;28;19932;-83
2023/12/26 00:50:31;;;;;;;;;;;;;;;13.98;49.77;100192.69;5038244;28;19921;-83
2023/12/26 00:52:58;;;;;;;;;;;;;;;13.99;49.68;100192.38;5037823;28;19935;-83
2023/12/26 00:55:25;;;;;;;;;;;;;;;13.94;50.66;100189.75;5036248;28;19955;-83
2023/12/26 00:57:50;;;;;;;;;;;;;;;13.92;50.31;100194.63;5036316;28;20650;-83
2023/12/26 01:00:16;;;;;;;;;;;;;;;13.93;50.33;100179.25;5040736;28;19920;-84
2023/12/26 01:02:41;;;;;;;;;;;;;;;13.91;50.49;100185.75;5041588;28;19960;-83
2023/12/26 01:05:07;;;;;;;;;;;;;;;13.96;50.27;100182.19;5043117;28;20007;-83
2023/12/26 01:07:32;;;;;;;;;;;;;;;13.93;50.89;100176.56;5073396;28;19978;-82
2023/12/26 01:10:00;;;;;;;;;;;;;;;13.93;51.24;100182.75;5038890;28;19956;-83
2023/12/26 01:12:25;;;;;;;;;;;;;;;13.93;50.76;100180.06;5042649;28;19924;-83
2023/12/26 01:14:50;;;;;;;;;;;;;;;13.99;50.52;100175.44;5041753;28;19925;-84
2023/12/26 01:17:16;;;;;;;;;;;;;;;14.00;50.81;100182.41;5041501;28;19931;-83
2023/12/26 01:19:41;;;;;;;;;;;;;;;13.99;51.34;100176.22;5037700;28;20297;-83
2023/12/26 01:22:06;;;;;;;;;;;;;;;14.02;51.26;100172.19;5039133;28;20047;-83
2023/12/26 01:24:32;;;;;;;;;;;;;;;14.06;50.79;100165.13;5041928;28;19925;-83
2023/12/26 01:26:57;;;;;;;;;;;;;;;14.08;51.44;100163.75;5039492;28;20369;-83
2023/12/26 01:29:22;;;;;;;;;;;;;;;14.13;50.90;100166.41;5072250;28;20023;-83
2023/12/26 01:31:47;;;;;;;;;;;;;;;14.14;51.50;100157.22;5040991;28;19924;-83
2023/12/26 01:34:13;;;;;;;;;;;;;;;14.18;51.07;100139.41;5043339;28;20454;-84
2023/12/26 01:36:38;;;;;;;;;;;;;;;14.15;51.81;100136.47;5040898;28;19931;-83
2023/12/26 01:39:03;;;;;;;;;;;;;;;14.17;51.66;100137.78;5040119;28;19924;-82
2023/12/26 01:41:30;;;;;;;;;;;;;;;14.16;51.74;100143.47;5041130;28;20416;-83
2023/12/26 01:43:55;;;;;;;;;;;;;;;14.22;51.95;100136.94;5041193;28;20019;-83
2023/12/26 01:46:20;;;;;;;;;;;;;;;14.17;52.13;100124.31;5043639;28;19924;-83
2023/12/26 01:48:47;;;;;;;;;;;;;;;14.19;51.71;100127.56;5037868;28;20492;-83
2023/12/26 01:51:14;;;;;;;;;;;;;;;14.21;51.88;100130.75;5041183;28;20393;-82
2023/12/26 01:53:40;;;;;;;;;;;;;;;14.20;51.99;100126.47;5039905;28;19932;-83
2023/12/26 01:56:10;;;;;;;;;;;;;;;14.18;52.59;100112.47;5055107;28;20667;-83
2023/12/26 01:58:36;;;;;;;;;;;;;;;14.23;52.57;100108.13;5040085;28;19925;-82
2023/12/26 02:01:02;;;;;;;;;;;;;;;14.27;51.94;100098.34;5039609;28;21099;-84
2023/12/26 02:03:27;;;;;;;;;;;;;;;14.28;52.02;100097.28;5039953;28;19924;-82
2023/12/26 02:05:52;;;;;;;;;;;;;;;14.24;52.54;100085.47;5040497;28;19925;-82
2023/12/26 02:08:18;;;;;;;;;;;;;;;14.25;52.33;100087.06;5040831;28;19983;-82
2023/12/26 02:10:44;;;;;;;;;;;;;;;14.23;52.47;100083.88;5038660;28;19924;-83
2023/12/26 02:13:09;;;;;;;;;;;;;;;14.20;52.59;100080.66;5039313;28;20535;-82
2023/12/26 02:15:34;;;;;;;;;;;;;;;14.20;52.73;100075.28;5039558;28;19925;-82
2023/12/26 02:18:00;;;;;;;;;;;;;;;14.23;52.73;100068.50;5038434;28;19920;-82
2023/12/26 02:20:25;;;;;;;;;;;;;;;14.22;53.22;100064.22;5038104;28;19925;-83
2023/12/26 02:22:50;;;;;;;;;;;;;;;14.16;53.22;100051.88;5039483;28;19921;-83
2023/12/26 02:25:16;;;;;;;;;;;;;;;14.21;52.96;100046.44;5039795;28;19925;-82
2023/12/26 02:27:42;;;;;;;;;;;;;;;14.18;52.96;100053.22;5038415;28;19925;-82
2023/12/26 02:30:08;;;;;;;;;;;;;;;14.19;53.46;100052.13;5038703;28;20002;-82
2023/12/26 02:32:34;;;;;;;;;;;;;;;14.26;53.20;100046.38;5038872;28;19978;-82
2023/12/26 02:35:00;;;;;;;;;;;;;;;14.26;53.10;100042.88;5039068;28;19924;-83
2023/12/26 02:37:26;;;;;;;;;;;;;;;14.31;53.23;100048.19;5037240;28;20286;-83
2023/12/26 02:39:51;;;;;;;;;;;;;;;14.35;53.20;100041.91;5040505;28;20694;-83
2023/12/26 02:42:17;;;;;;;;;;;;;;;14.39;53.26;100036.78;5040435;28;20116;-83
2023/12/26 02:44:42;;;;;;;;;;;;;;;14.40;53.26;100038.38;5038920;28;19971;-82
2023/12/26 02:47:08;;;;;;;;;;;;;;;14.46;53.08;100035.34;5038737;28;19921;-82
2023/12/26 02:49:34;;;;;;;;;;;;;;;14.53;53.21;100032.28;5039535;28;19956;-82
2023/12/26 02:51:59;;;;;;;;;;;;;;;14.57;52.74;100036.00;5038420;28;20008;-82
2023/12/26 02:54:24;;;;;;;;;;;;;;;14.55;52.95;100030.09;5038771;28;19924;-82
2023/12/26 02:56:49;;;;;;;;;;;;;;;14.56;53.07;100034.41;5036546;28;20613;-82
2023/12/26 02:59:15;;;;;;;;;;;;;;;14.56;53.00;100026.31;5038033;28;19928;-82
2023/12/26 03:01:43;;;;;;;;;;;;;;;14.60;53.25;100024.63;5038021;28;19960;-82
2023/12/26 03:04:08;;;;;;;;;;;;;;;14.64;53.04;100024.84;5040239;28;20023;-82
2023/12/26 03:06:33;;;;;;;;;;;;;;;14.68;53.05;100025.84;5038827;28;20468;-83
2023/12/26 03:08:58;;;;;;;;;;;;;;;14.68;53.08;100015.88;5038222;28;19929;-82
2023/12/26 03:11:24;;;;;;;;;;;;;;;14.68;53.07;100015.88;5039342;28;19932;-82
2023/12/26 03:13:49;;;;;;;;;;;;;;;14.69;53.10;100012.09;5039203;28;20399;-83
2023/12/26 03:16:14;;;;;;;;;;;;;;;14.74;52.80;100014.72;5072061;28;19971;-82
2023/12/26 03:18:39;;;;;;;;;;;;;;;14.73;53.36;100009.63;5037292;28;19947;-83
2023/12/26 03:21:05;;;;;;;;;;;;;;;14.68;53.27;100005.09;5036920;28;19932;-82
2023/12/26 03:23:30;;;;;;;;;;;;;;;14.72;53.22;100005.31;5037076;28;21249;-82
2023/12/26 03:25:55;;;;;;;;;;;;;;;14.77;53.13;99994.47;5036994;28;19924;-82
2023/12/26 03:28:21;;;;;;;;;;;;;;;14.76;53.30;99990.97;5036638;28;19928;-82
2023/12/26 03:30:46;;;;;;;;;;;;;;;14.77;53.34;99997.94;5038038;28;20641;-82
2023/12/26 03:33:11;;;;;;;;;;;;;;;14.81;53.29;99998.16;5053148;28;19916;-83
2023/12/26 03:35:36;;;;;;;;;;;;;;;14.85;53.44;99998.38;5037300;28;19925;-82
2023/12/26 03:38:02;;;;;;;;;;;;;;;14.94;53.20;99996.63;5044587;28;20054;-82
2023/12/26 03:40:27;;;;;;;;;;;;;;;14.97;53.02;99999.53;5037359;28;20385;-83
2023/12/26 03:42:53;;;;;;;;;;;;;;;15.01;53.08;99997.03;5037932;28;19925;-82
2023/12/26 03:45:18;;;;;;;;;;;;;;;15.05;53.14;99993.44;5037580;28;20407;-82
2023/12/26 03:47:44;;;;;;;;;;;;;;;15.05;52.81;99988.03;5036814;28;19932;-82
2023/12/26 03:50:10;;;;;;;;;;;;;;;15.04;52.92;99986.44;5036942;28;19924;-82
2023/12/26 03:52:36;;;;;;;;;;;;;;;15.06;52.93;99983.44;5039027;28;20320;-82
2023/12/26 03:55:02;;;;;;;;;;;;;;;15.07;52.92;99982.34;5036596;28;20438;-82
2023/12/26 03:57:27;;;;;;;;;;;;;;;15.09;52.79;99978.28;5037887;28;19921;-82
2023/12/26 03:59:52;;;;;;;;;;;;;;;15.11;52.87;99981.47;5038169;28;19931;-83
2023/12/26 04:02:18;;;;;;;;;;;;;;;15.12;52.92;99979.56;5039925;28;19950;-82
2023/12/26 04:04:44;;;;;;;;;;;;;;;15.11;52.88;99976.09;5039704;28;19921;-82
2023/12/26 04:07:09;;;;;;;;;;;;;;;15.09;52.79;99970.19;5037673;28;21078;-82
2023/12/26 04:09:35;;;;;;;;;;;;;;;15.11;52.93;99973.38;5038401;28;20399;-82
2023/12/26 04:12:00;;;;;;;;;;;;;;;15.13;52.81;99961.50;5037105;28;20370;-82
2023/12/26 04:14:25;;;;;;;;;;;;;;;15.11;52.77;99953.69;5037623;28;19923;-82
2023/12/26 04:16:50;;;;;;;;;;;;;;;15.11;52.88;99959.91;5040745;28;21649;-82
2023/12/26 04:19:16;;;;;;;;;;;;;;;15.08;52.70;99955.09;5038289;28;19924;-82
2023/12/26 04:21:41;;;;;;;;;;;;;;;15.05;52.95;99960.25;5037637;28;20051;-82
2023/12/26 04:24:06;;;;;;;;;;;;;;;15.05;52.92;99938.69;5038283;28;20946;-82
2023/12/26 04:26:31;;;;;;;;;;;;;;;15.05;52.97;99952.16;5037448;28;19925;-82
2023/12/26 04:28:57;;;;;;;;;;;;;;;15.03;53.18;99938.97;5036496;28;19929;-81
2023/12/26 04:31:22;;;;;;;;;;;;;;;15.07;53.08;99931.09;5036669;28;19935;-82
2023/12/26 04:33:47;;;;;;;;;;;;;;;15.12;52.94;99933.72;5038441;28;19921;-82
2023/12/26 04:36:13;;;;;;;;;;;;;;;15.11;52.92;99932.91;5038152;28;20759;-82
2023/12/26 04:38:38;;;;;;;;;;;;;;;15.11;52.96;99934.81;5036020;28;20448;-82
2023/12/26 04:41:08;;;;;;;;;;;;;;;15.10;53.05;99935.91;5036465;28;20402;-82
2023/12/26 04:43:34;;;;;;;;;;;;;;;15.09;53.11;99929.72;5037406;28;19921;-82
2023/12/26 04:45:59;;;;;;;;;;;;;;;15.10;53.27;99930.50;5038985;28;19931;-82
2023/12/26 04:48:24;;;;;;;;;;;;;;;15.15;52.92;99927.72;5038664;28;20397;-82
2023/12/26 04:50:49;;;;;;;;;;;;;;;15.15;53.26;99935.81;5038755;28;19924;-82
2023/12/26 04:53:15;;;;;;;;;;;;;;;15.15;53.08;99932.31;5037573;28;20374;-82
2023/12/26 04:55:40;;;;;;;;;;;;;;;15.14;53.13;99926.13;5035490;28;19933;-82
2023/12/26 04:58:05;;;;;;;;;;;;;;;15.14;53.06;99936.91;5036313;28;20388;-82
2023/12/26 05:00:31;;;;;;;;;;;;;;;15.15;53.25;99938.50;5038050;28;19931;-82
2023/12/26 05:02:56;;;;;;;;;;;;;;;15.20;53.26;99946.50;5037241;28;19925;-82
2023/12/26 05:05:21;;;;;;;;;;;;;;;15.22;53.11;99943.50;5068385;28;19931;-82
2023/12/26 05:07:46;;;;;;;;;;;;;;;15.21;53.11;99950.00;5037369;28;20350;-83
2023/12/26 05:10:12;;;;;;;;;;;;;;;15.19;53.31;99947.59;5038526;28;19928;-82
2023/12/26 05:12:37;;;;;;;;;;;;;;;15.21;53.17;99944.59;5038124;28;19932;-82
2023/12/26 05:15:03;;;;;;;;;;;;;;;15.24;53.15;99946.69;5037689;28;19970;-81
2023/12/26 05:17:28;;;;;;;;;;;;;;;15.27;53.44;99943.44;5037138;28;20572;-82
2023/12/26 05:19:53;;;;;;;;;;;;;;;15.30;53.24;99943.63;5035407;28;19929;-82
2023/12/26 05:22:18;;;;;;;;;;;;;;;15.32;53.25;99964.91;5038442;28;19924;-82
2023/12/26 05:24:44;;;;;;;;;;;;;;;15.29;53.35;99962.81;5038172;28;20771;-82
2023/12/26 05:27:10;;;;;;;;;;;;;;;15.28;53.39;99964.72;5037623;28;19925;-82
2023/12/26 05:29:36;;;;;;;;;;;;;;;15.32;53.40;99960.31;5036346;28;19932;-82
2023/12/26 05:32:01;;;;;;;;;;;;;;;15.28;53.37;99959.31;5037017;28;19970;-82
2023/12/26 05:34:26;;;;;;;;;;;;;;;15.32;53.62;99965.72;5037402;28;19939;-82
2023/12/26 05:36:52;;;;;;;;;;;;;;;15.34;53.61;99958.13;5037436;28;19924;-82
2023/12/26 05:39:17;;;;;;;;;;;;;;;15.36;53.31;99955.91;5036507;28;20537;-82
2023/12/26 05:41:43;;;;;;;;;;;;;;;15.31;53.65;99958.72;5036244;28;20027;-82
2023/12/26 05:44:08;;;;;;;;;;;;;;;15.33;53.71;99956.53;5035855;28;19925;-82
2023/12/26 05:46:33;;;;;;;;;;;;;;;15.38;53.35;99956.41;5037499;28;20286;-82
2023/12/26 05:48:59;;;;;;;;;;;;;;;15.38;53.61;99956.41;5042274;28;19928;-82
2023/12/26 05:51:25;;;;;;;;;;;;;;;15.37;53.66;99968.31;5040444;28;19920;-82
2023/12/26 05:53:50;;;;;;;;;;;;;;;15.38;53.42;99972.59;5039395;28;20297;-82
2023/12/26 05:56:16;;;;;;;;;;;;;;;15.37;53.51;99979.09;5040510;28;19978;-81
2023/12/26 05:58:41;;;;;;;;;;;;;;;15.39;53.74;99982.31;5039854;28;19929;-83
2023/12/26 06:01:10;;;;;;;;;;;;;;;15.46;53.47;99987.34;5041151;28;19921;-83
2023/12/26 06:03:35;;;;;;;;;;;;;;;15.48;53.55;99982.44;5040525;28;19967;-82
2023/12/26 06:06:00;;;;;;;;;;;;;;;15.55;53.59;99984.72;5041153;28;20004;-82
2023/12/26 06:08:26;;;;;;;;;;;;;;;15.59;53.22;99980.34;5041164;28;19933;-82
2023/12/26 06:10:52;;;;;;;;;;;;;;;15.57;53.08;99969.81;5040026;28;20023;-84
2023/12/26 06:13:17;;;;;;;;;;;;;;;15.52;53.11;99972.63;5039055;28;19924;-82
2023/12/26 06:15:42;;;;;;;;;;;;;;;15.49;53.14;99969.72;5040117;28;19964;-82
2023/12/26 06:18:08;;;;;;;;;;;;;;;15.47;53.11;99978.13;5039800;28;19925;-82
2023/12/26 06:20:33;;;;;;;;;;;;;;;15.52;53.22;99978.03;5038956;28;20609;-82
2023/12/26 06:22:58;;;;;;;;;;;;;;;15.56;53.18;99978.22;5038853;28;19921;-83
2023/12/26 06:25:23;;;;;;;;;;;;;;;15.55;53.14;99985.53;5038604;28;20535;-82
2023/12/26 06:27:49;;;;;;;;;;;;;;;15.58;52.90;99973.31;5036819;28;19928;-82
2023/12/26 06:30:14;;;;;;;;;;;;;;;15.56;52.89;99981.72;5039509;28;20380;-82
2023/12/26 06:32:39;;;;;;;;;;;;;;;15.53;52.92;99992.31;5039868;28;19924;-82
2023/12/26 06:35:05;;;;;;;;;;;;;;;15.55;52.84;100012.53;5038654;28;19932;-83
2023/12/26 06:37:30;;;;;;;;;;;;;;;15.55;52.93;100009.03;5038815;28;20719;-82
2023/12/26 06:39:55;;;;;;;;;;;;;;;15.55;52.88;100017.13;5039468;28;19986;-82
2023/12/26 06:42:21;;;;;;;;;;;;;;;15.55;52.64;100011.72;5040733;28;19974;-82
2023/12/26 06:44:46;;;;;;;;;;;;;;;15.53;52.83;100008.53;5039487;28;19971;-81
2023/12/26 06:47:12;;;;;;;;;;;;;;;15.53;52.83;100012.03;5036910;28;20582;-82
2023/12/26 06:49:41;;;;;;;;;;;;;;;15.53;52.66;100014.72;5038885;28;19929;-82
2023/12/26 06:52:06;;;;;;;;;;;;;;;15.51;52.68;100013.44;5039439;28;19925;-82
2023/12/26 06:54:33;;;;;;;;;;;;;;;15.52;52.58;100029.31;5039621;28;19917;-82
2023/12/26 06:57:05;;;;;;;;;;;;;;;15.47;52.66;100044.81;5037940;28;20434;-82
2023/12/26 06:59:30;;;;;;;;;;;;;;;15.46;52.57;100040.53;5039759;28;19995;-82
2023/12/26 07:01:56;;;;;;;;;;;;;;;15.47;52.67;100039.44;5038039;28;19931;-82
2023/12/26 07:04:21;;;;;;;;;;;;;;;15.42;52.45;100049.19;5036990;28;19933;-82
2023/12/26 07:06:46;;;;;;;;;;;;;;;15.41;52.48;100044.88;5037849;28;19924;-82
2023/12/26 07:09:11;;;;;;;;;;;;;;;15.40;52.56;100043.28;5038124;28;19929;-82
2023/12/26 07:11:37;;;;;;;;;;;;;;;15.40;52.30;100042.50;5038412;28;20043;-82
2023/12/26 07:14:02;;;;;;;;;;;;;;;15.35;52.46;100050.69;5038179;28;19925;-82
2023/12/26 07:16:27;;;;;;;;;;;;;;;15.36;52.87;100047.69;5040099;28;19924;-81
2023/12/26 07:18:53;;;;;;;;;;;;;;;15.39;52.61;100059.78;5038313;28;20023;-82
2023/12/26 07:21:20;;;;;;;;;;;;;;;15.45;52.37;100065.91;5053490;28;19932;-81
2023/12/26 07:23:46;;;;;;;;;;;;;;;15.38;52.25;100064.38;5038038;28;20007;-82
2023/12/26 07:26:12;;;;;;;;;;;;;;;15.41;52.54;100079.97;5037566;28;19924;-82
2023/12/26 07:28:37;;;;;;;;;;;;;;;15.42;52.23;100080.78;5038126;28;19939;-81
2023/12/26 07:31:02;;;;;;;;;;;;;;;15.42;52.23;100089.69;5038249;28;20970;-82
2023/12/26 07:33:28;;;;;;;;;;;;;;;15.40;52.13;100097.28;5039393;28;19925;-82
2023/12/26 07:35:57;;;;;;;;;;;;;;;15.38;52.22;100110.28;5038223;28;19925;-82
2023/12/26 07:38:22;;;;;;;;;;;;;;;15.38;52.29;100109.47;5038362;28;19925;-82
2023/12/26 07:40:48;;;;;;;;;;;;;;;15.45;52.00;100106.41;5036999;28;19921;-82
2023/12/26 07:43:13;;;;;;;;;;;;;;;15.46;51.67;100121.50;5039696;28;19928;-82
2023/12/26 07:45:38;;;;;;;;;;;;;;;15.44;51.79;100124.50;5038707;28;19970;-81
2023/12/26 07:48:04;;;;;;;;;;;;;;;15.45;51.83;100134.22;5036687;28;19928;-82
2023/12/26 07:50:29;;;;;;;;;;;;;;;15.45;51.73;100122.59;5037715;28;20747;-82
2023/12/26 07:52:54;;;;;;;;;;;;;;;15.46;51.51;100130.41;5037154;28;19925;-82
2023/12/26 07:55:20;;;;;;;;;;;;;;;15.41;51.35;100133.97;5040422;28;19928;-82
2023/12/26 07:57:45;;;;;;;;;;;;;;;15.41;51.43;100147.47;5038405;28;20014;-82
2023/12/26 08:00:10;;;;;;;;;;;;;;;15.43;51.43;100142.56;5035444;28;19925;-82
2023/12/26 08:02:36;;;;;;;;;;;;;;;15.43;51.43;100149.88;5038641;28;20849;-82
2023/12/26 08:05:01;;;;;;;;;;;;;;;15.50;51.37;100160.31;5038881;28;20675;-82
2023/12/26 08:07:27;;;;;;;;;;;;;;;15.51;51.26;100160.00;5053032;28;19985;-82
2023/12/26 08:09:52;;;;;;;;;;;;;;;15.51;51.15;100170.00;5036396;28;19932;-83
2023/12/26 08:12:18;;;;;;;;;;;;;;;15.50;51.14;100165.72;5039516;28;19925;-82
2023/12/26 08:14:43;;;;;;;;;;;;;;;15.50;51.02;100166.50;5038532;28;19936;-81
2023/12/26 08:17:08;;;;;;;;;;;;;;;15.47;50.92;100171.72;5036915;28;19924;-82
2023/12/26 08:19:33;;;;;;;;;;;;;;;15.46;50.76;100184.41;5035788;28;19921;-82
2023/12/26 08:21:59;;;;;;;;;;;;;;;15.45;50.69;100188.19;5037610;28;21373;-82
2023/12/26 08:24:24;;;;;;;;;;;;;;;15.47;50.56;100172.50;5038204;28;19925;-82
2023/12/26 08:26:53;;;;;;;;;;;;;;;15.47;50.33;100194.09;5035657;28;19924;-82
2023/12/26 08:29:35;;;;;;;;;;;;;;;15.38;50.18;100196.66;5073418;27;19928;-81
2023/12/26 08:32:00;;;;;;;;;;;;;;;15.37;50.35;100205.84;5067777;28;19967;-82
2023/12/26 08:34:26;;;;;;;;;;;;;;;15.36;50.25;100215.03;5068389;28;19931;-82
2023/12/26 08:36:51;;;;;;;;;;;;;;;15.38;50.14;100220.94;5067783;28;19916;-81
2023/12/26 08:39:17;;;;;;;;;;;;;;;15.40;49.88;100221.44;5068159;28;19968;-81
2023/12/26 08:41:42;;;;;;;;;;;;;;;15.40;49.69;100221.44;5067430;28;19924;-81
2023/12/26 08:44:08;;;;;;;;;;;;;;;15.39;49.76;100222.53;5067489;28;19916;-81
2023/12/26 08:46:33;;;;;;;;;;;;;;;15.42;49.87;100224.66;5067204;28;19970;-81
2023/12/26 08:48:58;;;;;;;;;;;;;;;15.43;49.59;100236.25;5065323;28;19935;-81
2023/12/26 08:51:24;;;;;;;;;;;;;;;15.47;49.72;100239.19;5065614;28;20418;-81
2023/12/26 08:53:49;;;;;;;;;;;;;;;15.50;49.66;100242.09;5068403;28;21167;-81
2023/12/26 08:56:14;;;;;;;;;;;;;;;15.48;49.33;100244.31;5083853;28;19986;-81
2023/12/26 08:58:40;;;;;;;;;;;;;;;15.47;49.34;100250.78;5066586;28;20647;-82
2023/12/26 09:01:06;;;;;;;;;;;;;;;15.52;49.13;100250.72;5068691;28;19968;-82
2023/12/26 09:03:31;;;;;;;;;;;;;;;15.53;49.01;100265.81;5067765;28;20028;-81
2023/12/26 09:05:57;;;;;;;;;;;;;;;15.61;49.15;100296.78;5066464;28;21280;-80
2023/12/26 09:08:22;;;;;;;;;;;;;;;15.60;48.82;100278.97;5066506;28;19929;-82
2023/12/26 09:10:47;;;;;;;;;;;;;;;15.60;48.56;100289.78;5066443;28;20325;-81
2023/12/26 09:13:13;;;;;;;;;;;;;;;15.62;48.64;100296.50;5068053;28;20406;-81
2023/12/26 09:15:38;;;;;;;;;;;;;;;15.67;48.71;100298.31;5066639;28;20769;-81
2023/12/26 09:18:03;;;;;;;;;;;;;;;15.71;48.57;100296.63;5067076;28;20413;-82
2023/12/26 09:20:29;;;;;;;;;;;;;;;15.79;48.25;100306.78;5065766;28;19924;-81
2023/12/26 09:22:54;;;;;;;;;;;;;;;15.78;47.98;100313.28;5066840;28;19924;-81
2023/12/26 09:25:19;;;;;;;;;;;;;;;15.78;47.68;100312.47;5067014;28;20372;-81
2023/12/26 09:27:44;;;;;;;;;;;;;;;15.64;47.94;100320.53;5065667;28;19955;-81
2023/12/26 09:30:10;;;;;;;;;;;;;;;15.63;48.01;100318.91;5065583;28;19982;-81
2023/12/26 09:32:35;;;;;;;;;;;;;;;15.57;48.12;100315.44;5066191;28;20380;-81
2023/12/26 09:35:01;;;;;;;;;;;;;;;15.61;47.75;100321.06;5066366;28;19920;-81
2023/12/26 09:37:26;;;;;;;;;;;;;;;15.57;47.75;100322.72;5065100;28;20444;-82
2023/12/26 09:39:51;;;;;;;;;;;;;;;15.54;47.83;100324.13;5054042;28;19921;-82
2023/12/26 09:42:20;;;;;;;;;;;;;;;15.59;47.90;100334.06;5050114;28;20930;-81
2023/12/26 09:44:46;;;;;;;;;;;;;;;15.65;48.11;100330.22;5051905;28;20059;-82
2023/12/26 09:47:12;;;;;;;;;;;;;;;15.80;47.94;100340.00;5051377;28;19925;-81
2023/12/26 09:49:38;;;;;;;;;;;;;;;15.84;47.45;100339.13;5051686;28;19928;-81
2023/12/26 09:52:07;;;;;;;;;;;;;;;15.81;47.24;100333.50;5051516;28;20406;-82
2023/12/26 09:54:33;;;;;;;;;;;;;;;15.77;47.10;100345.97;5051745;28;19932;-81
2023/12/26 09:56:59;;;;;;;;;;;;;;;15.76;47.26;100347.88;5050942;28;19925;-81
2023/12/26 09:59:25;;;;;;;;;;;;;;;15.74;47.08;100355.47;5049804;28;20296;-82
2023/12/26 10:01:50;;;;;;;;;;;;;;;15.84;47.45;100359.94;5051093;28;19935;-81
2023/12/26 10:04:16;;;;;;;;;;;;;;;15.95;47.33;100364.09;5049646;28;19968;-81
2023/12/26 10:06:41;;;;;;;;;;;;;;;16.06;47.16;100359.34;5051305;28;19952;-81
2023/12/26 10:09:06;;;;;;;;;;;;;;;16.09;46.78;100356.03;5053257;28;19979;-82
2023/12/26 10:11:32;;;;;;;;;;;;;;;16.16;46.58;100364.59;5052385;28;20005;-81
2023/12/26 10:13:58;;;;;;;;;;;;;;;16.19;46.05;100369.41;5051020;28;19924;-82
2023/12/26 10:16:23;;;;;;;;;;;;;;;16.19;45.96;100367.50;5050773;28;20406;-82
2023/12/26 10:18:50;;;;;;;;;;;;;;;16.24;45.99;100369.31;5050517;28;20361;-81
2023/12/26 10:21:15;;;;;;;;;;;;;;;16.30;45.25;100377.06;5052728;28;19924;-81
2023/12/26 10:23:40;;;;;;;;;;;;;;;16.25;45.90;100379.84;5048865;28;19968;-82
2023/12/26 10:26:07;;;;;;;;;;;;;;;16.27;45.51;100391.16;5049798;28;19967;-82
2023/12/26 10:28:39;;;;;;;;;;;;;;;16.26;45.58;100388.75;5050563;28;19967;-82
2023/12/26 10:31:12;;;;;;;;;;;;;;;16.27;45.54;100396.56;5051799;28;19939;-82
2023/12/26 10:33:37;;;;;;;;;;;;;;;16.22;44.72;100398.56;5050720;28;19975;-81
2023/12/26 10:36:05;;;;;;;;;;;;;;;16.18;45.00;100398.34;5063707;28;19924;-82
2023/12/26 10:38:31;;;;;;;;;;;;;;;16.17;44.88;100412.97;5063316;28;19920;-82
2023/12/26 10:40:58;;;;;;;;;;;;;;;16.12;45.22;100409.50;5054068;28;20636;-82
2023/12/26 10:43:25;;;;;;;;;;;;;;;16.19;45.03;100416.16;5049073;28;21233;-82
2023/12/26 10:45:51;;;;;;;;;;;;;;;16.22;44.83;100407.47;5049725;28;19931;-83
2023/12/26 10:48:17;;;;;;;;;;;;;;;16.23;45.04;100409.06;5051843;28;19929;-82
2023/12/26 10:50:42;;;;;;;;;;;;;;;16.16;44.94;100419.47;5057078;28;19931;-82
2023/12/26 10:53:11;;;;;;;;;;;;;;;16.14;44.69;100427.03;5058835;28;19920;-82
2023/12/26 10:55:37;;;;;;;;;;;;;;;16.13;45.00;100416.50;5067535;28;19947;-83
2023/12/26 10:58:02;;;;;;;;;;;;;;;16.08;44.69;100432.81;5057517;28;20476;-83
2023/12/26 11:00:27;;;;;;;;;;;;;;;16.04;44.40;100424.50;5055199;28;19971;-83
2023/12/26 11:02:53;;;;;;;;;;;;;;;16.00;44.30;100440.50;5056134;28;20426;-82
2023/12/26 11:05:18;;;;;;;;;;;;;;;16.00;44.36;100454.00;5057707;28;20373;-83
2023/12/26 11:07:43;;;;;;;;;;;;;;;16.02;43.88;100453.72;5055689;28;19932;-82
2023/12/26 11:10:09;;;;;;;;;;;;;;;15.92;43.69;100454.63;5056632;28;19920;-82
2023/12/26 11:12:34;;;;;;;;;;;;;;;15.85;44.09;100466.91;5058771;28;20558;-82
2023/12/26 11:14:59;;;;;;;;;;;;;;;15.85;44.24;100462.31;5057646;28;19920;-83
2023/12/26 11:17:24;;;;;;;;;;;;;;;15.84;43.92;100449.09;5057486;28;20465;-81
2023/12/26 11:19:50;;;;;;;;;;;;;;;15.82;43.91;100475.59;5054673;28;20369;-82
2023/12/26 11:22:16;;;;;;;;;;;;;;;15.76;43.79;100455.91;5056775;28;19927;-83
2023/12/26 11:24:42;;;;;;;;;;;;;;;15.85;44.01;100472.31;5056455;28;20066;-82
2023/12/26 11:27:07;;;;;;;;;;;;;;;15.85;43.67;100486.63;5054694;28;20023;-83
2023/12/26 11:29:32;;;;;;;;;;;;;;;15.85;43.94;100483.13;5057778;28;19925;-84
2023/12/26 11:31:58;;;;;;;;;;;;;;;15.85;44.03;100483.13;5056357;28;20383;-83
2023/12/26 11:34:24;;;;;;;;;;;;;;;15.86;43.53;100492.81;5059610;28;20021;-83
2023/12/26 11:36:49;;;;;;;;;;;;;;;15.86;43.59;100493.63;5053801;28;19917;-84
2023/12/26 11:39:17;;;;;;;;;;;;;;;15.87;43.59;100497.13;5054327;28;19926;-83
2023/12/26 11:41:42;;;;;;;;;;;;;;;15.83;43.49;100494.22;5057107;28;19928;-84
2023/12/26 11:44:08;;;;;;;;;;;;;;;15.88;43.69;100498.75;5057806;28;19965;-83
2023/12/26 11:46:33;;;;;;;;;;;;;;;15.90;43.61;100500.06;5053597;28;19920;-83
2023/12/26 11:48:58;;;;;;;;;;;;;;;15.90;43.45;100510.84;5053377;28;20561;-83
2023/12/26 11:51:24;;;;;;;;;;;;;;;15.81;43.28;100509.09;5054969;28;19921;-84
2023/12/26 11:53:49;;;;;;;;;;;;;;;15.84;43.55;100513.94;5054415;28;19989;-83
2023/12/26 11:56:14;;;;;;;;;;;;;;;15.78;43.54;100520.47;5053121;28;19932;-83
2023/12/26 11:58:40;;;;;;;;;;;;;;;15.78;43.59;100513.16;5055326;28;19959;-84
2023/12/26 12:01:05;;;;;;;;;;;;;;;15.77;43.76;100522.34;5060345;28;20027;-84
2023/12/26 12:03:30;;;;;;;;;;;;;;;15.81;43.61;100523.41;5066698;28;19960;-83
2023/12/26 12:06:13;;;;;;;;;;;;;;;15.84;43.40;100527.44;5052216;28;20047;-83
2023/12/26 12:08:58;;;;;;;;;;;;;;;15.81;43.80;100522.59;5057364;28;20319;-83
2023/12/26 12:11:23;;;;;;;;;;;;;;;15.82;43.66;100535.81;5053955;28;19990;-83
2023/12/26 12:13:48;;;;;;;;;;;;;;;15.83;43.38;100542.84;5061331;28;20390;-83
2023/12/26 12:16:24;;;;;;;;;;;;;;;15.78;43.16;100529.38;5059923;28;19917;-83
2023/12/26 12:19:01;;;;;;;;;;;;;;;15.78;43.50;100550.16;5060020;28;19955;-83
2023/12/26 12:21:39;;;;;;;;;;;;;;;15.71;43.68;100537.03;5057085;28;20011;-83
2023/12/26 12:24:04;;;;;;;;;;;;;;;15.75;43.44;100546.16;5060898;28;19924;-83
2023/12/26 12:26:50;;;;;;;;;;;;;;;15.78;43.42;100545.56;5053944;28;19921;-84
2023/12/26 12:29:15;;;;;;;;;;;;;;;15.83;43.28;100544.72;5048892;28;20779;-84
2023/12/26 12:31:41;;;;;;;;;;;;;;;15.81;42.91;100550.44;5050465;28;19920;-84